Rostein — LLHI — position and weather

sailwx.info

Track history (hours):
 
Tides and Currents Weather Stations Pressure Air Temp Water Temp Dewpoint Dewpoint Depression Visibility Wind Speed Wind Dir Waves Ship Positions

Rostein

Last reported at 2016-Aug-27 15:24 UTC. Time now 2016-Aug-30 10:52 UTC.
Position N 66°03' E 012°38'.

Length 57 m; draft 4 m.

Type: Cargo ship. MMSI: 257210000.

Date/timePositionNaut miles runAvg speedWind from/ knotsBaromVisibWave heightAir tempDewpointWater temp
2016-Aug-27 15:24N 66°03' E 012°38'1011.8
2016-Aug-27 14:33N 66°13' E 012°39'1211.7
2016-Aug-27 13:33N 66°25' E 012°40'4110.4
2016-Aug-27 09:33N 66°60' E 013°36'10 9.9
2016-Aug-27 08:33N 67°07' E 013°54'0 0.1
2016-Aug-27 07:33N 67°07' E 013°54'0 0.0
2016-Aug-27 06:33N 67°07' E 013°54'5 2.6
2016-Aug-27 04:33N 67°02' E 013°49'9 0.5
2016-Aug-26 11:33N 66°58' E 013°30'1110.5
2016-Aug-26 10:33N 67°03' E 013°52'4 3.9
2016-Aug-26 09:33N 67°07' E 013°54'0 0.0
2016-Aug-26 08:33N 67°07' E 013°54'0 0.0
2016-Aug-26 07:33N 67°07' E 013°54'0 0.1
2016-Aug-26 06:33N 67°07' E 013°54'7 3.7
2016-Aug-26 04:32N 67°01' E 013°43'8 0.6
2016-Aug-25 15:07N 66°55' E 013°30'5 8.8
2016-Aug-25 14:33N 66°59' E 013°36'1010.6
2016-Aug-25 13:33N 67°06' E 013°57'1110.6
2016-Aug-25 12:33N 67°14' E 014°13'5 4.6
2016-Aug-25 11:33N 67°17' E 014°23'0 0.0
2016-Aug-25 10:33N 67°17' E 014°23'0 0.1
2016-Aug-25 09:33N 67°17' E 014°22'1110.7
2016-Aug-25 08:33N 67°11' E 013°60'4 4.5
2016-Aug-25 07:33N 67°07' E 013°54'0 0.0
2016-Aug-25 06:33N 67°07' E 013°54'0 0.0
2016-Aug-25 04:33N 67°07' E 013°54'0 0.3
2016-Aug-25 03:33N 67°07' E 013°55'0 0.2
2016-Aug-25 02:29N 67°07' E 013°55'0 0.1
2016-Aug-25 01:32N 67°07' E 013°55'0 0.2
2016-Aug-25 00:33N 67°07' E 013°55'0 0.3
2016-Aug-24 23:33N 67°07' E 013°56'3 2.9
2016-Aug-24 22:32N 67°04' E 013°54'1010.4
2016-Aug-24 21:32N 66°58' E 013°32'7 0.8
2016-Aug-24 13:19N 66°51' E 013°32'18 9.8
2016-Aug-24 11:29N 66°44' E 012°50'1010.6
2016-Aug-24 10:32N 66°35' E 012°42'1010.3
2016-Aug-24 09:33N 66°25' E 012°41'17 0.5
2016-Aug-22 20:25N 66°07' E 012°46'53 6.0
2016-Aug-22 11:33N 65°17' E 011°59'10 9.7
2016-Aug-22 10:33N 65°08' E 011°50'10 9.6
2016-Aug-22 09:33N 65°00' E 011°38'10 9.7
2016-Aug-22 08:33N 64°54' E 011°21'10 9.8
2016-Aug-22 07:34N 64°47' E 011°05'3 3.1
2016-Aug-22 06:33N 64°45' E 011°11'5 4.7
2016-Aug-22 05:33N 64°50' E 011°10'1110.9
2016-Aug-22 04:34N 64°57' E 011°30'1111.0
2016-Aug-22 03:33N 65°05' E 011°47'1111.1
2016-Aug-22 02:33N 65°16' E 011°57'6 0.5
2016-Aug-21 14:24N 65°21' E 012°03'910.3
2016-Aug-21 13:34N 65°13' E 011°54'1010.2
2016-Aug-21 12:33N 65°04' E 011°45'1010.1
2016-Aug-21 11:33N 64°57' E 011°29'1110.8
2016-Aug-21 10:33N 64°49' E 011°10'4 4.3
2016-Aug-21 09:34N 64°45' E 011°11'0 0.3
2016-Aug-21 08:33N 64°45' E 011°11'2 2.3
2016-Aug-21 07:34N 64°46' E 011°06'8 8.1
2016-Aug-21 06:34N 64°53' E 011°17'1211.9
2016-Aug-21 05:33N 65°01' E 011°39'1211.7
2016-Aug-21 04:32N 65°11' E 011°51'11 0.3
2016-Aug-19 15:09N 65°21' E 012°03'610.0
2016-Aug-19 14:33N 65°16' E 011°57'1010.2
2016-Aug-19 13:33N 65°06' E 011°48'10 9.9
2016-Aug-19 12:34N 64°59' E 011°35'1010.1
2016-Aug-19 11:33N 64°52' E 011°16'7 7.0
2016-Aug-19 10:33N 64°45' E 011°11'0 0.2
2016-Aug-19 09:34N 64°45' E 011°11'0 0.1
2016-Aug-19 08:33N 64°45' E 011°11'1 1.2
2016-Aug-19 07:34N 64°45' E 011°09'7 6.9
2016-Aug-19 06:34N 64°52' E 011°16'9 9.2
2016-Aug-19 05:34N 64°58' E 011°32'10 9.9
2016-Aug-19 04:33N 65°05' E 011°47'1010.4
2016-Aug-19 03:33N 65°15' E 011°56'6 0.4
2016-Aug-18 13:14N 65°20' E 012°02'710.5
2016-Aug-18 12:34N 65°14' E 011°55'1010.3
2016-Aug-18 11:34N 65°04' E 011°46'10 9.9
2016-Aug-18 10:34N 64°57' E 011°30'1010.4
2016-Aug-18 09:33N 64°50' E 011°11'5 5.1
2016-Aug-18 08:33N 64°45' E 011°11'0 0.0
2016-Aug-18 07:34N 64°45' E 011°11'3 3.1
2016-Aug-18 06:34N 64°47' E 011°05'9 8.8
2016-Aug-18 05:34N 64°53' E 011°19'9 9.4
2016-Aug-18 04:34N 64°59' E 011°36'10 9.7
2016-Aug-18 03:34N 65°07' E 011°49'10 9.8
2016-Aug-18 02:30N 65°17' E 011°58'  
Track history (hours):
 
Tides and Currents Weather Stations Pressure Air Temp Water Temp Dewpoint Dewpoint Depression Visibility Wind Speed Wind Dir Waves Ship Positions

Rostein

Last reported at 2016-Aug-27 15:24 UTC. Time now 2016-Aug-30 10:52 UTC.
Position N 66°03' E 012°38'.

Length 57 m; draft 4 m.

Type: Cargo ship. MMSI: 257210000.

Date/timePositionNaut miles runAvg speedWind from/ knotsBaromVisibWave heightAir tempDewpointWater temp
2016-Aug-27 15:24N 66°03' E 012°38'1011.8
2016-Aug-27 14:33N 66°13' E 012°39'1211.7
2016-Aug-27 13:33N 66°25' E 012°40'4110.4
2016-Aug-27 09:33N 66°60' E 013°36'10 9.9
2016-Aug-27 08:33N 67°07' E 013°54'0 0.1
2016-Aug-27 07:33N 67°07' E 013°54'0 0.0
2016-Aug-27 06:33N 67°07' E 013°54'5 2.6
2016-Aug-27 04:33N 67°02' E 013°49'9 0.5
2016-Aug-26 11:33N 66°58' E 013°30'1110.5
2016-Aug-26 10:33N 67°03' E 013°52'4 3.9
2016-Aug-26 09:33N 67°07' E 013°54'0 0.0
2016-Aug-26 08:33N 67°07' E 013°54'0 0.0
2016-Aug-26 07:33N 67°07' E 013°54'0 0.1
2016-Aug-26 06:33N 67°07' E 013°54'7 3.7
2016-Aug-26 04:32N 67°01' E 013°43'8 0.6
2016-Aug-25 15:07N 66°55' E 013°30'5 8.8
2016-Aug-25 14:33N 66°59' E 013°36'1010.6
2016-Aug-25 13:33N 67°06' E 013°57'1110.6
2016-Aug-25 12:33N 67°14' E 014°13'5 4.6
2016-Aug-25 11:33N 67°17' E 014°23'0 0.0
2016-Aug-25 10:33N 67°17' E 014°23'0 0.1
2016-Aug-25 09:33N 67°17' E 014°22'1110.7
2016-Aug-25 08:33N 67°11' E 013°60'4 4.5
2016-Aug-25 07:33N 67°07' E 013°54'0 0.0
2016-Aug-25 06:33N 67°07' E 013°54'0 0.0
2016-Aug-25 04:33N 67°07' E 013°54'0 0.3
2016-Aug-25 03:33N 67°07' E 013°55'0 0.2
2016-Aug-25 02:29N 67°07' E 013°55'0 0.1
2016-Aug-25 01:32N 67°07' E 013°55'0 0.2
2016-Aug-25 00:33N 67°07' E 013°55'0 0.3
2016-Aug-24 23:33N 67°07' E 013°56'3 2.9
2016-Aug-24 22:32N 67°04' E 013°54'1010.4
2016-Aug-24 21:32N 66°58' E 013°32'7 0.8
2016-Aug-24 13:19N 66°51' E 013°32'18 9.8
2016-Aug-24 11:29N 66°44' E 012°50'1010.6
2016-Aug-24 10:32N 66°35' E 012°42'1010.3
2016-Aug-24 09:33N 66°25' E 012°41'17 0.5
2016-Aug-22 20:25N 66°07' E 012°46'53 6.0
2016-Aug-22 11:33N 65°17' E 011°59'10 9.7
2016-Aug-22 10:33N 65°08' E 011°50'10 9.6
2016-Aug-22 09:33N 65°00' E 011°38'10 9.7
2016-Aug-22 08:33N 64°54' E 011°21'10 9.8
2016-Aug-22 07:34N 64°47' E 011°05'3 3.1
2016-Aug-22 06:33N 64°45' E 011°11'5 4.7
2016-Aug-22 05:33N 64°50' E 011°10'1110.9
2016-Aug-22 04:34N 64°57' E 011°30'1111.0
2016-Aug-22 03:33N 65°05' E 011°47'1111.1
2016-Aug-22 02:33N 65°16' E 011°57'6 0.5
2016-Aug-21 14:24N 65°21' E 012°03'910.3
2016-Aug-21 13:34N 65°13' E 011°54'1010.2
2016-Aug-21 12:33N 65°04' E 011°45'1010.1
2016-Aug-21 11:33N 64°57' E 011°29'1110.8
2016-Aug-21 10:33N 64°49' E 011°10'4 4.3
2016-Aug-21 09:34N 64°45' E 011°11'0 0.3
2016-Aug-21 08:33N 64°45' E 011°11'2 2.3
2016-Aug-21 07:34N 64°46' E 011°06'8 8.1
2016-Aug-21 06:34N 64°53' E 011°17'1211.9
2016-Aug-21 05:33N 65°01' E 011°39'1211.7
2016-Aug-21 04:32N 65°11' E 011°51'11 0.3
2016-Aug-19 15:09N 65°21' E 012°03'610.0
2016-Aug-19 14:33N 65°16' E 011°57'1010.2
2016-Aug-19 13:33N 65°06' E 011°48'10 9.9
2016-Aug-19 12:34N 64°59' E 011°35'1010.1
2016-Aug-19 11:33N 64°52' E 011°16'7 7.0
2016-Aug-19 10:33N 64°45' E 011°11'0 0.2
2016-Aug-19 09:34N 64°45' E 011°11'0 0.1
2016-Aug-19 08:33N 64°45' E 011°11'1 1.2
2016-Aug-19 07:34N 64°45' E 011°09'7 6.9
2016-Aug-19 06:34N 64°52' E 011°16'9 9.2
2016-Aug-19 05:34N 64°58' E 011°32'10 9.9
2016-Aug-19 04:33N 65°05' E 011°47'1010.4
2016-Aug-19 03:33N 65°15' E 011°56'6 0.4
2016-Aug-18 13:14N 65°20' E 012°02'710.5
2016-Aug-18 12:34N 65°14' E 011°55'1010.3
2016-Aug-18 11:34N 65°04' E 011°46'10 9.9
2016-Aug-18 10:34N 64°57' E 011°30'1010.4
2016-Aug-18 09:33N 64°50' E 011°11'5 5.1
2016-Aug-18 08:33N 64°45' E 011°11'0 0.0
2016-Aug-18 07:34N 64°45' E 011°11'3 3.1
2016-Aug-18 06:34N 64°47' E 011°05'9 8.8
2016-Aug-18 05:34N 64°53' E 011°19'9 9.4
2016-Aug-18 04:34N 64°59' E 011°36'10 9.7
2016-Aug-18 03:34N 65°07' E 011°49'10 9.8
2016-Aug-18 02:30N 65°17' E 011°58'  

Dump ship's entire track history